createdAt,value
2023-03-18T00:02:05.003Z,47.60
2023-03-18T00:05:09.641Z,53.00
2023-03-18T00:08:12.686Z,44.40
2023-03-18T00:11:18.602Z,42.90
2023-03-18T00:14:22.541Z,43.40
2023-03-18T00:17:26.133Z,41.70
2023-03-18T00:20:38.693Z,37.40
2023-03-18T00:23:42.192Z,38.50
2023-03-18T00:26:45.181Z,36.90
2023-03-18T00:29:48.115Z,34.10
2023-03-18T00:32:51.258Z,36.10
2023-03-18T00:35:54.918Z,37.40
2023-03-18T00:38:58.518Z,38.30
2023-03-18T00:42:10.475Z,35.00
2023-03-18T00:45:16.231Z,38.30
2023-03-18T00:48:19.367Z,40.20
2023-03-18T00:51:24.665Z,35.20
2023-03-18T00:54:28.272Z,36.60
2023-03-18T00:57:31.340Z,37.30
2023-03-18T01:00:35.845Z,36.00
2023-03-18T01:03:43.573Z,36.90
2023-03-18T01:06:46.684Z,37.70
2023-03-18T01:09:49.973Z,37.20
2023-03-18T01:12:55.890Z,40.00
2023-03-18T01:15:59.201Z,40.10
2023-03-18T01:19:02.196Z,37.60
2023-03-18T01:22:05.257Z,42.40
2023-03-18T01:25:13.330Z,39.60
2023-03-18T01:28:17.265Z,37.40
2023-03-18T01:31:20.389Z,39.80
2023-03-18T01:34:25.172Z,38.20
2023-03-18T01:37:29.051Z,36.50
2023-03-18T01:40:42.002Z,34.00
2023-03-18T01:43:45.983Z,36.20
2023-03-18T01:46:50.957Z,37.70
2023-03-18T01:49:54.525Z,38.00
2023-03-18T01:53:10.744Z,37.50
2023-03-18T01:56:15.910Z,36.70
2023-03-18T01:59:21.758Z,35.00
2023-03-18T02:02:26.248Z,37.20
2023-03-18T02:05:29.727Z,36.50
2023-03-18T02:08:33.309Z,36.10
2023-03-18T02:11:42.787Z,33.20
2023-03-18T02:14:46.745Z,33.00
2023-03-18T02:17:56.201Z,35.10
2023-03-18T02:21:08.436Z,32.60
2023-03-18T02:24:44.521Z,33.20
2023-03-18T02:27:56.350Z,37.10
2023-03-18T02:31:04.115Z,32.30
2023-03-18T02:34:09.062Z,32.40
2023-03-18T02:37:12.368Z,34.10
2023-03-18T02:40:29.303Z,38.80
2023-03-18T02:43:33.751Z,29.60
2023-03-18T02:46:56.031Z,33.50
2023-03-18T02:49:59.686Z,32.20
2023-03-18T02:53:04.799Z,37.30
2023-03-18T02:56:08.474Z,33.10
2023-03-18T02:59:13.183Z,34.50
2023-03-18T03:02:16.755Z,34.50
2023-03-18T03:05:20.684Z,32.30
2023-03-18T03:08:24.494Z,37.30
2023-03-18T03:11:28.573Z,32.90
2023-03-18T03:14:34.948Z,31.20
2023-03-18T03:17:38.115Z,31.10
2023-03-18T03:20:41.948Z,31.90
2023-03-18T03:23:46.165Z,29.70
2023-03-18T03:26:50.105Z,32.70
2023-03-18T03:29:54.097Z,34.00
2023-03-18T03:32:57.653Z,34.00
2023-03-18T03:36:00.809Z,34.40
2023-03-18T03:39:04.320Z,31.70
2023-03-18T03:42:11.378Z,30.90
2023-03-18T03:45:17.200Z,32.70
2023-03-18T03:48:20.720Z,29.50
2023-03-18T03:51:24.113Z,30.50
2023-03-18T03:54:27.753Z,29.00
2023-03-18T03:57:30.890Z,31.70
2023-03-18T04:00:34.139Z,30.20
2023-03-18T04:03:37.253Z,35.50
2023-03-18T04:06:42.851Z,32.80
2023-03-18T04:09:46.783Z,32.00
2023-03-18T04:12:50.090Z,30.20
2023-03-18T04:15:53.270Z,31.50
2023-03-18T04:18:56.333Z,29.90
2023-03-18T04:21:59.721Z,29.40
2023-03-18T04:25:02.841Z,32.50
2023-03-18T04:28:06.011Z,32.80
2023-03-18T04:31:09.919Z,35.80
2023-03-18T04:34:13.710Z,33.70
2023-03-18T04:37:20.080Z,32.30
2023-03-18T04:40:24.894Z,30.90
2023-03-18T04:43:28.514Z,31.00
2023-03-18T04:46:32.695Z,29.60
2023-03-18T04:49:35.972Z,36.00
2023-03-18T04:52:40.930Z,35.80
2023-03-18T04:55:45.048Z,32.90
2023-03-18T04:58:48.924Z,34.20
2023-03-18T05:01:55.213Z,32.20
2023-03-18T05:05:01.326Z,38.30
2023-03-18T05:08:05.733Z,35.10
2023-03-18T05:11:09.059Z,36.10
2023-03-18T05:14:12.565Z,38.00
2023-03-18T05:17:20.025Z,36.20
2023-03-18T05:20:30.227Z,36.80
2023-03-18T05:23:34.426Z,34.10
2023-03-18T05:26:38.885Z,30.00
2023-03-18T05:29:42.471Z,33.80
2023-03-18T05:32:52.877Z,33.00
2023-03-18T05:36:00.887Z,33.90
2023-03-18T05:39:07.691Z,32.70
2023-03-18T05:42:11.617Z,37.60
2023-03-18T05:45:14.888Z,32.90
2023-03-18T05:48:25.712Z,33.40
2023-03-18T05:51:32.314Z,31.90
2023-03-18T05:54:35.934Z,36.60
2023-03-18T05:57:40.408Z,37.50
2023-03-18T06:00:45.769Z,37.10
2023-03-18T06:03:48.859Z,38.60
2023-03-18T06:06:51.879Z,37.40
2023-03-18T06:09:55.101Z,35.70
2023-03-18T06:12:58.148Z,36.80
2023-03-18T06:16:01.552Z,41.00
2023-03-18T06:19:06.760Z,39.80
2023-03-18T06:22:10.042Z,37.70
2023-03-18T06:25:13.066Z,37.20
2023-03-18T06:28:16.112Z,37.00
2023-03-18T06:31:19.876Z,36.40
2023-03-18T06:34:24.099Z,37.20
2023-03-18T06:37:28.346Z,37.70
2023-03-18T06:40:31.657Z,36.90
2023-03-18T06:43:35.595Z,33.70
2023-03-18T06:46:43.763Z,35.80
2023-03-18T06:49:48.229Z,33.80
2023-03-18T06:52:54.187Z,34.90
2023-03-18T06:56:01.583Z,34.50
2023-03-18T06:59:10.845Z,35.40
2023-03-18T07:02:15.424Z,38.40
2023-03-18T07:05:20.772Z,37.50
2023-03-18T07:08:24.147Z,38.00
2023-03-18T07:11:27.781Z,38.00
2023-03-18T07:14:30.944Z,38.60
2023-03-18T07:17:35.038Z,34.70
2023-03-18T07:20:38.531Z,37.00
2023-03-18T07:23:41.683Z,41.80
2023-03-18T07:26:45.587Z,37.60
2023-03-18T07:29:48.513Z,43.90
2023-03-18T07:32:51.777Z,39.90
2023-03-18T07:35:55.481Z,40.10
2023-03-18T07:38:59.971Z,42.70
2023-03-18T07:42:03.154Z,37.00
2023-03-18T07:45:07.879Z,42.70
2023-03-18T07:48:10.982Z,43.10
2023-03-18T07:51:15.532Z,39.50
2023-03-18T07:54:18.665Z,41.80
2023-03-18T07:57:21.652Z,39.00
2023-03-18T08:00:25.711Z,40.60
2023-03-18T08:03:28.684Z,34.90
2023-03-18T08:06:32.968Z,39.20
2023-03-18T08:09:36.725Z,32.40
2023-03-18T08:12:52.030Z,34.60
2023-03-18T08:15:56.288Z,31.50
2023-03-18T08:18:59.712Z,33.30
2023-03-18T08:22:03.184Z,25.50
2023-03-18T08:25:06.610Z,15.30
2023-03-18T08:28:09.635Z,17.30
2023-03-18T08:31:14.326Z,19.50
2023-03-18T08:34:17.339Z,18.50
2023-03-18T08:37:20.282Z,17.50
2023-03-18T08:40:23.780Z,18.70
2023-03-18T08:43:27.234Z,14.80
2023-03-18T08:46:30.344Z,16.70
2023-03-18T08:49:33.708Z,14.60
2023-03-18T08:52:38.694Z,18.40
2023-03-18T08:55:42.336Z,18.50
2023-03-18T08:58:46.091Z,15.80
2023-03-18T09:01:49.316Z,16.20
2023-03-18T09:04:55.251Z,25.10
2023-03-18T09:07:58.906Z,17.90
2023-03-18T09:11:02.783Z,17.90
2023-03-18T09:14:06.873Z,15.60
2023-03-18T09:17:09.844Z,16.10
2023-03-18T09:20:15.312Z,13.90
2023-03-18T09:23:18.932Z,15.10
2023-03-18T09:26:22.099Z,15.30
2023-03-18T09:29:25.136Z,11.40
2023-03-18T09:32:28.346Z,11.90
2023-03-18T09:35:32.461Z,12.10
2023-03-18T09:38:36.608Z,12.20
2023-03-18T09:41:53.382Z,11.30
2023-03-18T09:45:02.435Z,17.10
2023-03-18T09:48:14.595Z,16.80
2023-03-18T09:51:23.057Z,16.20
2023-03-18T09:54:36.521Z,15.00
2023-03-18T09:57:45.433Z,14.00
2023-03-18T10:00:53.502Z,14.40
2023-03-18T10:04:21.457Z,14.30
2023-03-18T10:07:31.739Z,13.30
2023-03-18T10:10:39.125Z,12.70
2023-03-18T10:13:48.904Z,12.20
2023-03-18T10:17:16.467Z,12.50
2023-03-18T10:20:29.898Z,12.70
2023-03-18T10:23:49.717Z,14.30
2023-03-18T10:27:03.273Z,13.10
2023-03-18T10:30:34.794Z,13.90
2023-03-18T10:33:46.759Z,13.60
2023-03-18T10:36:55.722Z,9.80
2023-03-18T10:40:00.131Z,9.00
2023-03-18T10:43:04.297Z,11.70
2023-03-18T10:46:14.321Z,10.30
2023-03-18T10:49:23.985Z,9.60
2023-03-18T10:52:38.082Z,12.30
2023-03-18T10:55:54.901Z,12.00
2023-03-18T10:58:59.869Z,15.60
2023-03-18T11:02:06.377Z,13.40
2023-03-18T11:05:24.755Z,11.40
2023-03-18T11:08:40.121Z,10.00
2023-03-18T11:11:45.548Z,9.20
2023-03-18T11:14:50.444Z,13.10
2023-03-18T11:17:59.029Z,11.40
2023-03-18T11:21:04.770Z,9.50
2023-03-18T11:24:36.153Z,9.90
2023-03-18T11:27:40.593Z,10.80
2023-03-18T11:30:50.344Z,12.10
2023-03-18T11:33:59.080Z,14.90
2023-03-18T11:37:10.955Z,11.50
2023-03-18T11:40:14.106Z,11.00
2023-03-18T11:43:20.973Z,10.30
2023-03-18T11:46:26.509Z,12.80
2023-03-18T11:49:31.349Z,12.50
2023-03-18T11:52:48.879Z,10.80
2023-03-18T11:56:32.841Z,10.40
2023-03-18T11:59:47.616Z,11.60
2023-03-18T12:02:53.500Z,9.10
2023-03-18T12:06:11.270Z,12.00
2023-03-18T12:09:21.437Z,7.90
2023-03-18T12:12:44.568Z,11.70
2023-03-18T12:15:54.364Z,11.70
2023-03-18T12:19:25.210Z,10.30
2023-03-18T12:22:56.513Z,14.60
2023-03-18T12:26:32.431Z,9.80
2023-03-18T12:29:53.932Z,9.80
2023-03-18T12:33:10.861Z,9.90
2023-03-18T12:36:19.145Z,15.90
2023-03-18T12:39:48.435Z,11.80
2023-03-18T12:43:12.596Z,10.60
2023-03-18T12:46:27.463Z,10.20
2023-03-18T12:49:47.610Z,11.70
2023-03-18T12:53:00.295Z,12.80
2023-03-18T12:56:28.114Z,12.60
2023-03-18T12:59:38.579Z,10.90
2023-03-18T13:02:54.167Z,12.30
2023-03-18T13:06:12.253Z,11.50
2023-03-18T13:09:33.403Z,10.40
2023-03-18T13:12:41.866Z,9.70
2023-03-18T13:15:52.596Z,10.60
2023-03-18T13:18:57.510Z,9.90
2023-03-18T13:22:10.178Z,10.00
2023-03-18T13:25:24.930Z,13.40
2023-03-18T13:28:41.784Z,11.70
2023-03-18T13:31:59.089Z,11.40
2023-03-18T13:35:32.583Z,11.10
2023-03-18T13:38:54.132Z,12.30
2023-03-18T13:42:15.511Z,10.40
2023-03-18T13:45:33.872Z,9.60
2023-03-18T13:48:40.796Z,16.10
2023-03-18T13:51:53.711Z,10.00
2023-03-18T13:55:03.645Z,10.00
2023-03-18T13:58:16.338Z,8.90
2023-03-18T14:01:28.767Z,11.60
2023-03-18T14:04:46.079Z,12.60
2023-03-18T14:07:49.707Z,10.80
2023-03-18T14:11:16.677Z,11.40
2023-03-18T14:14:45.489Z,13.00
2023-03-18T14:17:56.973Z,9.30
2023-03-18T14:21:02.715Z,9.80
2023-03-18T14:24:33.314Z,9.00
2023-03-18T14:27:53.667Z,11.80
2023-03-18T14:31:45.437Z,20.60
2023-03-18T14:35:21.247Z,12.10
2023-03-18T14:38:57.651Z,12.90
2023-03-18T14:42:04.799Z,12.00
2023-03-18T14:45:33.690Z,28.50
2023-03-18T14:48:37.023Z,9.30
2023-03-18T14:51:40.410Z,9.70
2023-03-18T14:54:46.058Z,11.30
2023-03-18T14:57:52.766Z,13.20
2023-03-18T15:01:16.016Z,11.60
2023-03-18T15:04:25.046Z,9.80
2023-03-18T15:07:34.548Z,11.10
2023-03-18T15:10:38.830Z,9.80
2023-03-18T15:13:44.102Z,11.20
2023-03-18T15:17:00.252Z,13.50
2023-03-18T15:20:05.218Z,14.50
2023-03-18T15:23:11.761Z,13.30
2023-03-18T15:26:23.934Z,14.60
2023-03-18T15:29:36.401Z,16.10
2023-03-18T15:36:13.996Z,14.40
2023-03-18T15:39:36.104Z,18.30
2023-03-18T15:42:39.106Z,19.10
2023-03-18T15:45:47.072Z,20.20
2023-03-18T15:48:56.737Z,18.80
2023-03-18T15:52:03.012Z,19.00
2023-03-18T15:55:37.544Z,16.50
2023-03-18T15:58:40.635Z,14.50
2023-03-18T16:01:44.087Z,18.00
2023-03-18T16:04:48.564Z,16.30
2023-03-18T16:07:55.054Z,17.70
2023-03-18T16:11:02.463Z,19.40
2023-03-18T16:14:06.050Z,23.40
2023-03-18T16:17:19.676Z,24.00
2023-03-18T16:20:30.144Z,22.00
2023-03-18T16:23:33.288Z,26.00
2023-03-18T16:26:36.913Z,20.20
2023-03-18T16:29:39.985Z,18.00
2023-03-18T16:32:43.320Z,18.50
2023-03-18T16:36:00.252Z,17.70
2023-03-18T16:39:15.238Z,19.10
2023-03-18T16:42:18.577Z,20.90
2023-03-18T16:45:28.676Z,20.30
2023-03-18T16:48:32.462Z,21.80
2023-03-18T16:51:35.457Z,28.10
2023-03-18T16:54:39.439Z,27.50
2023-03-18T16:57:47.309Z,29.70
2023-03-18T17:00:51.348Z,33.70
2023-03-18T17:03:54.586Z,34.00
2023-03-18T17:06:59.990Z,29.70
2023-03-18T17:10:04.033Z,43.70
2023-03-18T17:13:13.385Z,38.30
2023-03-18T17:16:20.062Z,31.50
2023-03-18T17:19:25.594Z,38.70
2023-03-18T17:22:32.488Z,58.60
2023-03-18T17:25:36.325Z,65.60
2023-03-18T17:28:46.179Z,64.50
2023-03-18T17:31:50.706Z,96.80
2023-03-18T17:34:54.387Z,95.00
2023-03-18T17:37:57.494Z,108.80
2023-03-18T17:41:20.198Z,131.00
2023-03-18T17:44:24.003Z,193.60
2023-03-18T17:47:27.171Z,188.90
2023-03-18T17:50:30.226Z,178.10
2023-03-18T17:53:45.724Z,148.10
2023-03-18T17:56:48.773Z,136.30
2023-03-18T17:59:53.101Z,119.00
2023-03-18T18:02:57.785Z,115.20
2023-03-18T18:06:01.544Z,112.10
2023-03-18T18:09:05.942Z,99.60
2023-03-18T18:12:16.564Z,91.00
2023-03-18T18:15:28.921Z,94.50
2023-03-18T18:18:34.267Z,78.20
2023-03-18T18:21:37.715Z,53.60
2023-03-18T18:24:46.982Z,52.40
2023-03-18T18:27:50.313Z,64.70
2023-03-18T18:30:53.453Z,99.60
2023-03-18T18:33:56.549Z,71.90
2023-03-18T18:36:59.567Z,77.80
2023-03-18T18:40:03.131Z,78.00
2023-03-18T18:43:06.433Z,85.20
2023-03-18T18:46:16.670Z,81.80
2023-03-18T18:49:23.160Z,82.80
2023-03-18T18:52:26.554Z,86.70
2023-03-18T18:55:30.501Z,83.90
2023-03-18T18:58:34.807Z,82.40
2023-03-18T19:01:37.815Z,70.20
2023-03-18T19:04:41.042Z,61.20
2023-03-18T19:07:45.496Z,68.60
2023-03-18T19:10:49.728Z,74.50
2023-03-18T19:13:53.671Z,75.80
2023-03-18T19:17:00.947Z,77.70
2023-03-18T19:20:25.141Z,70.40
2023-03-18T19:23:31.033Z,66.50
2023-03-18T19:26:34.144Z,55.80
2023-03-18T19:29:37.412Z,59.80
2023-03-18T19:32:40.410Z,59.10
2023-03-18T19:35:45.097Z,55.10
2023-03-18T19:38:50.322Z,51.20
2023-03-18T19:41:53.616Z,41.60
2023-03-18T19:44:56.776Z,40.90
2023-03-18T19:47:59.947Z,44.30
2023-03-18T19:51:04.294Z,45.30
2023-03-18T19:54:23.911Z,43.60
2023-03-18T19:57:29.582Z,44.90
2023-03-18T20:00:32.951Z,45.60
2023-03-18T20:03:36.132Z,48.40
2023-03-18T20:06:39.136Z,52.80
2023-03-18T20:09:42.478Z,58.10
2023-03-18T20:12:48.397Z,61.60
2023-03-18T20:15:51.427Z,60.30
2023-03-18T20:18:54.531Z,62.80
2023-03-18T20:21:58.313Z,54.90
2023-03-18T20:25:02.624Z,52.30
2023-03-18T20:28:08.126Z,52.40
2023-03-18T20:31:12.469Z,47.90
2023-03-18T20:34:15.969Z,38.10
2023-03-18T20:37:34.802Z,38.80
2023-03-18T20:40:38.983Z,37.60
2023-03-18T20:43:42.837Z,36.90
2023-03-18T20:46:46.118Z,37.70
2023-03-18T20:49:49.208Z,38.60
2023-03-18T20:52:53.405Z,34.20
2023-03-18T20:55:57.393Z,37.60
2023-03-18T20:59:00.650Z,31.40
2023-03-18T21:02:04.018Z,37.10
2023-03-18T21:05:08.090Z,34.50
2023-03-18T21:08:11.831Z,33.20
2023-03-18T21:11:21.957Z,34.80
2023-03-18T21:14:25.057Z,34.70
2023-03-18T21:17:28.474Z,34.80
2023-03-18T21:20:32.576Z,32.70
2023-03-18T21:23:36.824Z,37.50
2023-03-18T21:26:41.044Z,36.20
2023-03-18T21:29:44.509Z,37.90
2023-03-18T21:32:50.085Z,40.00
2023-03-18T21:35:56.931Z,41.00
2023-03-18T21:39:00.334Z,37.70
2023-03-18T21:42:03.893Z,33.60
2023-03-18T21:45:11.553Z,36.00
2023-03-18T21:48:15.701Z,37.30
2023-03-18T21:51:39.149Z,34.80
2023-03-18T21:54:42.952Z,38.00
2023-03-18T21:57:48.739Z,34.70
2023-03-18T22:00:58.035Z,36.20
2023-03-18T22:04:01.276Z,35.70
2023-03-18T22:07:04.516Z,32.20
2023-03-18T22:10:08.299Z,34.50
2023-03-18T22:13:22.828Z,35.50
2023-03-18T22:16:26.014Z,31.70
2023-03-18T22:19:29.048Z,31.40
2023-03-18T22:22:37.016Z,30.30
2023-03-18T22:25:41.764Z,27.70
2023-03-18T22:28:45.632Z,28.00
2023-03-18T22:31:48.891Z,29.70
2023-03-18T22:34:54.080Z,29.10
2023-03-18T22:37:57.275Z,34.80
2023-03-18T22:41:00.620Z,36.70
2023-03-18T22:44:04.529Z,36.50
2023-03-18T22:47:26.630Z,40.90
2023-03-18T22:50:32.275Z,43.00
2023-03-18T22:53:41.139Z,44.40
2023-03-18T22:56:44.175Z,46.40
2023-03-18T22:59:47.209Z,47.40
2023-03-18T23:02:51.204Z,45.50
2023-03-18T23:05:56.988Z,48.80
2023-03-18T23:09:00.020Z,51.10
2023-03-18T23:12:03.190Z,43.70
2023-03-18T23:15:07.417Z,51.70
2023-03-18T23:18:18.016Z,50.20
2023-03-18T23:21:23.468Z,52.40
2023-03-18T23:24:26.495Z,50.80
2023-03-18T23:27:29.697Z,54.30
2023-03-18T23:30:34.606Z,56.10
2023-03-18T23:33:38.330Z,56.00
2023-03-18T23:36:41.791Z,54.50
2023-03-18T23:39:46.332Z,56.30
2023-03-18T23:42:49.505Z,54.10
2023-03-18T23:45:52.647Z,47.60
2023-03-18T23:48:55.805Z,49.70
2023-03-18T23:52:00.450Z,56.00
2023-03-18T23:55:12.236Z,57.70
2023-03-18T23:58:21.616Z,57.30
